Ripley, WV (25271)

9:53 AM EST on February 24, 2017 (GMT -0500)
MainStreetRipley | | Change Station

Elev 630 ft 38.82 °N, 81.71 °W | Updated 6 seconds ago

Clear
Clear
67.3 °F
Feels Like 67.3 °F
N
1.1
Wind Variable Wind from ENE
Gusts 2.5 mph

Today
High -- | Low -- °F
--% Chance of Precip.
Yesterday
High -- | Low -- °F
Precip. -- in
Pressure 29.82 in
Visibility 10.0 miles
Clouds Clear
Dew Point 53 °F
Humidity 60%
Rainfall 0.00 in
Snow Depth Not available.
7:05 AM 6:14 PM
Waning Crescent, 5% visible
METAR K3I2 241435Z AUTO 13003KT 10SM CLR 20/12 A2982 RMK AO2 T01960115
Pressure 29.82 in
Visibility 10.0 miles
Clouds Clear
Dew Point 53 °F
Humidity 60%
Rainfall 0.00 in
Snow Depth Not available.
7:05 AM 6:14 PM
Waning Crescent, 5% visible
METAR K3I2 241435Z AUTO 13003KT 10SM CLR 20/12 A2982 RMK AO2 T01960115

Get Your Daily Forecast Email!

Thanks for signing up!

Be on the lookout for a verification email in your inbox.

You'll start receiving the daily forecast at 8 AM.

×

10-Day Weather Forecast

Almanac

Astronomy

Feb. 24, 2017 Rise Set
Actual Time
Civil Twilight
Nautical Twilight
Astronomical Twilight
Moon
Length of Visible Light
Length of Day
Tomorrow will be .
, % of the Moon is Illuminated

Today's Extremes

State Highs State Lows

Community

WunderPhotos

Upload Photos

1,962,540 photos uploaded!

WunderBlog® & News

Nearby

Air Quality

  Air Quality AQ Index Pollutant
Not available.

Snow Depth

Station Depth Elevation

Earthquake Activity

City Distance Mag. Time & Date
Minimum magnitude displayed is 2.5.

Coastal Water Temperatures

Place Temperature

Stations

Nearby Weather Stations

Station Location Temp. Windchill Dew Point Humidity Wind Precip. Elev Updated Type
                   

Watches & Warnings

There are currently no watches in effect.